createdAt,value
2018-05-27T00:01:53.061Z,103258.73
2018-05-27T00:04:19.358Z,103258.02
2018-05-27T00:06:45.983Z,103262.68
2018-05-27T00:09:12.370Z,103262.47
2018-05-27T00:11:38.753Z,103262.56
2018-05-27T00:14:05.533Z,103266.77
2018-05-27T00:16:31.974Z,103269.45
2018-05-27T00:18:58.178Z,103264.63
2018-05-27T00:21:24.828Z,103274.06
2018-05-27T00:23:51.193Z,103272.80
2018-05-27T00:26:17.425Z,103270.66
2018-05-27T00:28:43.991Z,103272.55
2018-05-27T00:31:10.352Z,103281.12
2018-05-27T00:33:36.441Z,103284.78
2018-05-27T00:36:03.553Z,103283.13
2018-05-27T00:38:30.178Z,103285.48
2018-05-27T00:40:56.359Z,103284.73
2018-05-27T00:43:23.120Z,103283.96
2018-05-27T00:45:49.574Z,103285.43
2018-05-27T00:48:15.643Z,103291.36
2018-05-27T00:50:42.548Z,103285.66
2018-05-27T00:53:13.011Z,103284.41
2018-05-27T00:55:39.174Z,103282.34
2018-05-27T00:58:05.689Z,103284.70
2018-05-27T01:00:32.119Z,103285.30
2018-05-27T01:02:58.434Z,103280.44
2018-05-27T01:05:25.083Z,103276.63
2018-05-27T01:07:51.539Z,103284.21
2018-05-27T01:10:17.808Z,103282.10
2018-05-27T01:12:44.443Z,103280.84
2018-05-27T01:15:10.686Z,103286.76
2018-05-27T01:17:36.804Z,103284.20
2018-05-27T01:20:03.377Z,103290.56
2018-05-27T01:22:29.860Z,103296.03
2018-05-27T01:24:56.111Z,103289.09
2018-05-27T01:29:58.290Z,103290.54
2018-05-27T01:32:24.507Z,103301.31
2018-05-27T01:34:50.698Z,103298.72
2018-05-27T01:39:54.793Z,103293.96
2018-05-27T01:42:21.015Z,103293.59
2018-05-27T01:44:47.273Z,103295.92
2018-05-27T01:47:13.965Z,103291.09
2018-05-27T01:49:40.189Z,103299.23
2018-05-27T01:52:06.410Z,103307.73
2018-05-27T01:54:33.183Z,103307.84
2018-05-27T01:56:59.361Z,103306.94
2018-05-27T01:59:25.569Z,103309.69
2018-05-27T02:01:52.778Z,103312.84
2018-05-27T02:04:19.036Z,103313.36
2018-05-27T02:06:45.133Z,103324.53
2018-05-27T02:09:11.979Z,103318.33
2018-05-27T02:11:38.088Z,103324.19
2018-05-27T02:14:04.318Z,103327.81
2018-05-27T02:16:31.204Z,103330.97
2018-05-27T02:18:57.409Z,103329.66
2018-05-27T02:21:23.476Z,103334.16
2018-05-27T02:23:50.797Z,103329.73
2018-05-27T02:26:17.079Z,103338.23
2018-05-27T02:28:43.314Z,103325.75
2018-05-27T02:31:10.508Z,103332.44
2018-05-27T02:33:36.620Z,103326.23
2018-05-27T02:36:02.673Z,103340.08
2018-05-27T02:38:29.437Z,103334.28
2018-05-27T02:40:55.643Z,103337.40
2018-05-27T02:43:21.884Z,103337.50
2018-05-27T02:45:48.572Z,103349.45
2018-05-27T02:48:14.779Z,103352.13
2018-05-27T02:50:41.049Z,103350.80
2018-05-27T02:53:07.910Z,103357.47
2018-05-27T02:55:34.102Z,103360.14
2018-05-27T02:58:00.432Z,103350.86
2018-05-27T03:00:27.746Z,103357.89
2018-05-27T03:02:54.011Z,103349.88
2018-05-27T03:05:20.297Z,103354.33
2018-05-27T03:07:47.014Z,103355.66
2018-05-27T03:10:13.167Z,103353.44
2018-05-27T03:12:39.387Z,103355.22
2018-05-27T03:15:06.255Z,103353.91
2018-05-27T03:17:32.446Z,103355.22
2018-05-27T03:19:58.698Z,103352.58
2018-05-27T03:22:25.883Z,103357.41
2018-05-27T03:24:52.120Z,103358.34
2018-05-27T03:27:18.352Z,103362.75
2018-05-27T03:29:45.269Z,103360.08
2018-05-27T03:32:11.540Z,103361.39
2018-05-27T03:34:37.732Z,103356.45
2018-05-27T03:37:04.860Z,103354.23
2018-05-27T03:39:31.133Z,103354.20
2018-05-27T03:41:57.339Z,103355.05
2018-05-27T03:44:24.641Z,103355.91
2018-05-27T03:46:50.845Z,103358.52
2018-05-27T03:49:17.052Z,103361.13
2018-05-27T03:51:44.102Z,103353.52
2018-05-27T03:54:10.361Z,103360.23
2018-05-27T03:56:36.780Z,103355.30
2018-05-27T03:59:03.417Z,103366.44
2018-05-27T04:01:29.633Z,103357.05
2018-05-27T04:04:08.540Z,103374.39
2018-05-27T04:06:46.852Z,103370.34
2018-05-27T04:09:14.005Z,103373.84
2018-05-27T04:11:40.214Z,103371.62
2018-05-27T04:14:06.455Z,103369.77
2018-05-27T04:19:28.616Z,103375.39
2018-05-27T04:21:56.047Z,103374.84
2018-05-27T04:24:22.258Z,103380.98
2018-05-27T04:26:48.457Z,103383.99
2018-05-27T04:29:15.437Z,103382.66
2018-05-27T04:31:41.638Z,103388.80
2018-05-27T04:34:07.844Z,103385.23
2018-05-27T04:36:34.490Z,103396.23
2018-05-27T04:39:00.714Z,103401.03
2018-05-27T04:41:26.961Z,103393.38
2018-05-27T04:43:53.953Z,103387.95
2018-05-27T04:46:20.170Z,103395.05
2018-05-27T04:48:46.437Z,103387.33
2018-05-27T04:51:13.338Z,103389.04
2018-05-27T04:53:39.572Z,103384.09
2018-05-27T04:56:05.811Z,103392.39
2018-05-27T04:58:32.787Z,103367.16
2018-05-27T05:00:58.990Z,103394.84
2018-05-27T05:03:25.238Z,103384.13
2018-05-27T05:05:52.296Z,103388.44
2018-05-27T05:08:18.559Z,103393.27
2018-05-27T05:10:44.756Z,103388.70
2018-05-27T05:13:11.379Z,103396.61
2018-05-27T05:15:37.629Z,103395.64
2018-05-27T05:18:03.835Z,103399.91
2018-05-27T05:20:30.784Z,103394.05
2018-05-27T05:22:57.050Z,103385.45
2018-05-27T05:25:23.249Z,103400.52
2018-05-27T05:27:50.015Z,103402.17
2018-05-27T05:30:16.236Z,103394.05
2018-05-27T05:32:42.456Z,103393.05
2018-05-27T05:35:09.540Z,103389.84
2018-05-27T05:37:35.734Z,103387.16
2018-05-27T05:40:01.926Z,103379.44
2018-05-27T05:42:28.751Z,103378.83
2018-05-27T05:44:54.995Z,103380.16
2018-05-27T05:47:21.221Z,103391.11
2018-05-27T05:49:48.107Z,103389.20
2018-05-27T05:52:14.329Z,103391.80
2018-05-27T05:54:40.540Z,103397.95
2018-05-27T05:57:07.496Z,103389.80
2018-05-27T05:59:33.716Z,103394.13
2018-05-27T06:01:59.945Z,103392.25
2018-05-27T06:04:26.777Z,103393.95
2018-05-27T06:06:52.996Z,103400.56
2018-05-27T06:09:19.216Z,103399.94
2018-05-27T06:11:45.919Z,103401.64
2018-05-27T06:14:12.165Z,103405.97
2018-05-27T06:16:38.372Z,103401.90
2018-05-27T06:19:05.106Z,103403.38
2018-05-27T06:21:31.359Z,103404.53
2018-05-27T06:23:57.586Z,103415.08
2018-05-27T06:26:24.714Z,103409.66
2018-05-27T06:28:50.983Z,103401.56
2018-05-27T06:31:17.217Z,103406.89
2018-05-27T06:33:43.810Z,103406.89
2018-05-27T06:36:09.979Z,103405.95
2018-05-27T06:38:36.253Z,103412.95
2018-05-27T06:41:03.093Z,103409.27
2018-05-27T06:43:29.315Z,103401.08
2018-05-27T06:45:55.824Z,103406.34
2018-05-27T06:48:22.392Z,103406.16
2018-05-27T06:50:48.609Z,103405.20
2018-05-27T06:53:14.854Z,103387.16
2018-05-27T06:55:41.425Z,103407.25
2018-05-27T06:58:07.395Z,103407.14
2018-05-27T07:00:33.486Z,103402.19
2018-05-27T07:02:59.892Z,103399.30
2018-05-27T07:05:25.959Z,103408.20
2018-05-27T07:07:52.187Z,103406.75
2018-05-27T07:10:19.039Z,103408.75
2018-05-27T07:12:45.131Z,103408.14
2018-05-27T07:15:11.267Z,103416.55
2018-05-27T07:17:38.022Z,103423.60
2018-05-27T07:20:04.180Z,103424.85
2018-05-27T07:22:30.312Z,103429.27
2018-05-27T07:24:56.628Z,103424.23
2018-05-27T07:27:22.693Z,103421.41
2018-05-27T07:29:48.783Z,103418.12
2018-05-27T07:32:15.129Z,103422.05
2018-05-27T07:34:41.175Z,103424.52
2018-05-27T07:37:07.273Z,103409.34
2018-05-27T07:39:33.821Z,103432.72
2018-05-27T07:41:59.866Z,103424.50
2018-05-27T07:44:25.955Z,103422.58
2018-05-27T07:46:52.248Z,103422.38
2018-05-27T07:49:18.321Z,103428.03
2018-05-27T07:51:44.343Z,103414.92
2018-05-27T07:54:10.971Z,103415.26
2018-05-27T07:56:37.037Z,103427.73
2018-05-27T07:59:03.114Z,103420.86
2018-05-27T08:01:29.631Z,103415.31
2018-05-27T08:03:55.702Z,103409.38
2018-05-27T08:06:21.759Z,103410.22
2018-05-27T08:08:48.605Z,103404.77
2018-05-27T08:11:14.697Z,103408.70
2018-05-27T08:13:40.840Z,103411.17
2018-05-27T08:16:07.423Z,103411.89
2018-05-27T08:18:33.534Z,103412.67
2018-05-27T08:20:59.551Z,103411.22
2018-05-27T08:23:26.435Z,103414.64
2018-05-27T08:25:52.520Z,103412.66
2018-05-27T08:28:18.594Z,103411.63
2018-05-27T08:30:44.982Z,103410.57
2018-05-27T08:33:11.059Z,103408.55
2018-05-27T08:35:37.048Z,103400.80
2018-05-27T08:38:03.851Z,103403.31
2018-05-27T08:40:29.872Z,103400.00
2018-05-27T08:42:55.928Z,103406.03
2018-05-27T08:45:22.498Z,103406.63
2018-05-27T08:47:48.535Z,103408.63
2018-05-27T08:50:14.601Z,103414.66
2018-05-27T08:52:40.926Z,103410.97
2018-05-27T08:55:06.945Z,103422.23
2018-05-27T08:57:33.036Z,103427.24
2018-05-27T09:02:25.516Z,103430.37
2018-05-27T09:04:51.587Z,103424.75
2018-05-27T09:07:17.979Z,103428.06
2018-05-27T09:09:44.389Z,103425.45
2018-05-27T09:12:10.412Z,103424.28
2018-05-27T09:14:36.749Z,103419.28
2018-05-27T09:17:03.091Z,103421.19
2018-05-27T09:19:29.119Z,103422.28
2018-05-27T09:21:55.495Z,103410.47
2018-05-27T09:24:21.696Z,103422.34
2018-05-27T09:26:47.696Z,103388.05
2018-05-27T09:29:13.861Z,103406.82
2018-05-27T09:31:40.026Z,103404.72
2018-05-27T09:34:06.120Z,103398.59
2018-05-27T09:36:32.439Z,103392.32
2018-05-27T09:38:58.701Z,103391.91
2018-05-27T09:41:24.715Z,103397.25
2018-05-27T09:43:50.977Z,103389.53
2018-05-27T09:46:17.274Z,103385.27
2018-05-27T09:48:43.288Z,103373.69
2018-05-27T09:51:09.683Z,103379.19
2018-05-27T09:53:36.087Z,103380.93
2018-05-27T09:56:02.255Z,103373.41
2018-05-27T09:58:28.838Z,103382.03
2018-05-27T10:00:55.229Z,103384.04
2018-05-27T10:03:21.410Z,103380.88
2018-05-27T10:05:47.842Z,103378.75
2018-05-27T10:08:14.195Z,103382.78
2018-05-27T10:10:40.346Z,103383.13
2018-05-27T10:13:06.809Z,103387.25
2018-05-27T10:15:33.119Z,103393.27
2018-05-27T10:17:59.332Z,103383.92
2018-05-27T10:20:25.851Z,103383.77
2018-05-27T10:22:52.343Z,103393.16
2018-05-27T10:25:18.623Z,103398.75
2018-05-27T10:27:44.768Z,103386.08
2018-05-27T10:30:11.355Z,103388.90
2018-05-27T10:32:37.347Z,103397.28
2018-05-27T10:35:03.528Z,103396.95
2018-05-27T10:37:30.075Z,103398.02
2018-05-27T10:39:56.306Z,103399.02
2018-05-27T10:42:22.546Z,103407.44
2018-05-27T10:44:48.912Z,103394.86
2018-05-27T10:47:15.127Z,103403.20
2018-05-27T10:49:41.806Z,103396.11
2018-05-27T10:52:08.130Z,103397.88
2018-05-27T10:54:34.355Z,103391.51
2018-05-27T10:57:00.874Z,103400.09
2018-05-27T10:59:27.157Z,103403.44
2018-05-27T11:01:53.156Z,103402.99
2018-05-27T11:04:19.563Z,103402.19
2018-05-27T11:06:45.732Z,103409.39
2018-05-27T11:09:12.119Z,103409.39
2018-05-27T11:11:38.445Z,103403.45
2018-05-27T11:14:04.912Z,103404.52
2018-05-27T11:16:31.114Z,103392.59
2018-05-27T11:18:57.188Z,103388.89
2018-05-27T11:21:23.354Z,103395.28
2018-05-27T11:23:49.397Z,103395.48
2018-05-27T11:26:15.738Z,103401.56
2018-05-27T11:28:42.152Z,103408.78
2018-05-27T11:31:08.318Z,103406.95
2018-05-27T11:33:34.631Z,103397.49
2018-05-27T11:36:01.183Z,103393.84
2018-05-27T11:38:27.342Z,103411.28
2018-05-27T11:40:53.775Z,103397.84
2018-05-27T11:43:20.187Z,103404.06
2018-05-27T11:45:46.198Z,103407.57
2018-05-27T11:48:12.474Z,103387.53
2018-05-27T11:50:38.811Z,103401.35
2018-05-27T11:53:04.797Z,103406.04
2018-05-27T11:55:31.052Z,103408.22
2018-05-27T11:57:57.242Z,103392.98
2018-05-27T12:00:23.487Z,103401.53
2018-05-27T12:02:49.837Z,103403.56
2018-05-27T12:05:16.257Z,103410.84
2018-05-27T12:07:42.323Z,103411.38
2018-05-27T12:10:09.297Z,103408.48
2018-05-27T12:12:35.618Z,103413.67
2018-05-27T12:15:01.669Z,103404.95
2018-05-27T12:17:27.901Z,103400.38
2018-05-27T12:19:54.073Z,103407.67
2018-05-27T12:22:20.109Z,103400.88
2018-05-27T12:24:46.378Z,103384.17
2018-05-27T12:27:12.684Z,103394.65
2018-05-27T12:29:38.784Z,103394.67
2018-05-27T12:32:05.198Z,103394.91
2018-05-27T12:34:31.575Z,103388.86
2018-05-27T12:36:57.885Z,103384.42
2018-05-27T12:39:24.306Z,103379.59
2018-05-27T12:41:50.619Z,103379.13
2018-05-27T12:44:16.838Z,103376.09
2018-05-27T12:46:43.217Z,103381.95
2018-05-27T12:49:09.618Z,103383.64
2018-05-27T12:51:35.662Z,103376.56
2018-05-27T12:54:02.015Z,103368.80
2018-05-27T12:56:28.449Z,103374.27
2018-05-27T12:58:54.519Z,103374.73
2018-05-27T13:01:20.953Z,103362.26
2018-05-27T13:03:47.247Z,103363.82
2018-05-27T13:06:13.478Z,103359.09
2018-05-27T13:08:40.010Z,103352.56
2018-05-27T13:11:06.652Z,103350.09
2018-05-27T13:13:32.712Z,103357.27
2018-05-27T13:15:58.889Z,103357.75
2018-05-27T13:18:25.371Z,103368.00
2018-05-27T13:20:51.596Z,103370.72
2018-05-27T13:23:17.876Z,103384.01
2018-05-27T13:25:44.015Z,103378.31
2018-05-27T13:28:10.025Z,103388.39
2018-05-27T13:30:36.362Z,103370.65
2018-05-27T13:33:02.584Z,103369.66
2018-05-27T13:35:28.763Z,103365.75
2018-05-27T13:37:55.093Z,103366.56
2018-05-27T13:40:21.480Z,103360.87
2018-05-27T13:42:47.688Z,103357.98
2018-05-27T13:45:14.000Z,103361.87
2018-05-27T13:47:40.530Z,103348.58
2018-05-27T13:50:06.733Z,103345.37
2018-05-27T13:52:33.241Z,103345.88
2018-05-27T13:54:59.494Z,103346.92
2018-05-27T13:57:25.705Z,103340.88
2018-05-27T13:59:51.994Z,103334.63
2018-05-27T14:02:18.405Z,103331.50
2018-05-27T14:04:44.674Z,103330.63
2018-05-27T14:07:11.075Z,103322.69
2018-05-27T14:09:37.348Z,103326.05
2018-05-27T14:12:03.671Z,103324.91
2018-05-27T14:14:29.715Z,103323.23
2018-05-27T14:16:56.101Z,103317.06
2018-05-27T14:19:22.322Z,103311.56
2018-05-27T14:21:48.697Z,103303.95
2018-05-27T14:24:15.039Z,103308.10
2018-05-27T14:26:41.331Z,103306.70
2018-05-27T14:29:07.630Z,103314.85
2018-05-27T14:31:33.890Z,103306.91
2018-05-27T14:34:00.063Z,103297.54
2018-05-27T14:36:26.432Z,103290.34
2018-05-27T14:38:52.748Z,103303.32
2018-05-27T14:41:18.983Z,103308.00
2018-05-27T14:43:45.473Z,103298.00
2018-05-27T14:46:11.712Z,103293.95
2018-05-27T14:48:37.898Z,103289.92
2018-05-27T14:51:04.247Z,103299.46
2018-05-27T14:53:30.469Z,103292.98
2018-05-27T14:55:56.723Z,103291.89
2018-05-27T14:58:23.051Z,103287.96
2018-05-27T15:00:49.739Z,103290.08
2018-05-27T15:03:15.899Z,103283.66
2018-05-27T15:05:42.210Z,103281.27
2018-05-27T15:08:08.544Z,103280.69
2018-05-27T15:10:34.749Z,103296.41
2018-05-27T15:13:01.827Z,103295.08
2018-05-27T15:15:28.290Z,103308.30
2018-05-27T15:17:54.502Z,103302.22
2018-05-27T15:20:20.805Z,103297.58
2018-05-27T15:22:47.158Z,103294.76
2018-05-27T15:25:13.314Z,103299.12
2018-05-27T15:27:39.699Z,103308.22
2018-05-27T15:30:06.052Z,103309.86
2018-05-27T15:32:32.269Z,103310.55
2018-05-27T15:34:58.751Z,103308.86
2018-05-27T15:37:25.061Z,103309.73
2018-05-27T15:39:51.211Z,103309.96
2018-05-27T15:42:17.570Z,103304.10
2018-05-27T15:44:43.951Z,103304.48
2018-05-27T15:47:10.128Z,103316.61
2018-05-27T15:49:36.379Z,103310.72
2018-05-27T15:52:02.714Z,103310.48
2018-05-27T15:54:28.918Z,103302.70
2018-05-27T15:56:55.396Z,103307.37
2018-05-27T15:59:21.709Z,103309.24
2018-05-27T16:01:47.859Z,103306.93
2018-05-27T16:04:14.268Z,103310.81
2018-05-27T16:06:40.582Z,103304.75
2018-05-27T16:09:06.779Z,103300.75
2018-05-27T16:11:33.089Z,103303.77
2018-05-27T16:13:59.708Z,103295.58
2018-05-27T16:16:25.951Z,103294.69
2018-05-27T16:18:52.403Z,103291.91
2018-05-27T16:21:18.781Z,103296.41
2018-05-27T16:23:44.989Z,103300.25
2018-05-27T16:26:11.255Z,103297.47
2018-05-27T16:28:37.744Z,103287.32
2018-05-27T16:31:03.951Z,103284.32
2018-05-27T16:33:30.304Z,103283.48
2018-05-27T16:35:56.422Z,103286.05
2018-05-27T16:38:22.675Z,103277.22
2018-05-27T16:40:49.028Z,103276.72
2018-05-27T16:43:15.423Z,103268.99
2018-05-27T16:45:41.644Z,103269.59
2018-05-27T16:48:07.951Z,103273.05
2018-05-27T16:50:34.229Z,103272.76
2018-05-27T16:53:00.382Z,103273.08
2018-05-27T16:55:26.904Z,103280.16
2018-05-27T16:57:53.402Z,103279.67
2018-05-27T17:00:19.604Z,103273.33
2018-05-27T17:02:45.888Z,103272.29
2018-05-27T17:05:12.214Z,103260.46
2018-05-27T17:07:38.362Z,103266.45
2018-05-27T17:10:04.711Z,103257.84
2018-05-27T17:12:30.942Z,103253.88
2018-05-27T17:14:57.134Z,103262.53
2018-05-27T17:17:23.364Z,103265.48
2018-05-27T17:19:49.518Z,103265.30
2018-05-27T17:22:15.687Z,103270.08
2018-05-27T17:24:41.847Z,103269.88
2018-05-27T17:27:08.217Z,103273.53
2018-05-27T17:29:34.219Z,103279.36
2018-05-27T17:32:00.594Z,103278.86
2018-05-27T17:34:26.877Z,103277.50
2018-05-27T17:36:52.953Z,103278.58
2018-05-27T17:39:19.067Z,103281.78
2018-05-27T17:41:45.319Z,103280.45
2018-05-27T17:44:11.376Z,103278.27
2018-05-27T17:46:37.723Z,103279.78
2018-05-27T17:49:04.101Z,103277.15
2018-05-27T17:51:30.119Z,103271.84
2018-05-27T17:53:56.642Z,103271.58
2018-05-27T17:56:22.960Z,103280.98
2018-05-27T17:58:48.969Z,103282.83
2018-05-27T18:01:15.424Z,103278.47
2018-05-27T18:03:41.725Z,103282.36
2018-05-27T18:06:07.758Z,103285.62
2018-05-27T18:08:34.308Z,103281.59
2018-05-27T18:11:00.815Z,103279.84
2018-05-27T18:13:26.924Z,103280.31
2018-05-27T18:15:53.343Z,103283.13
2018-05-27T18:18:19.729Z,103270.23
2018-05-27T18:20:45.738Z,103273.66
2018-05-27T18:23:12.304Z,103275.14
2018-05-27T18:25:39.176Z,103277.45
2018-05-27T18:28:05.182Z,103273.03
2018-05-27T18:30:31.471Z,103273.14
2018-05-27T18:32:57.754Z,103273.93
2018-05-27T18:35:23.814Z,103268.61
2018-05-27T18:37:50.016Z,103269.66
2018-05-27T18:40:16.256Z,103272.09
2018-05-27T18:42:42.251Z,103272.66
2018-05-27T18:45:08.851Z,103270.03
2018-05-27T18:47:35.150Z,103270.14
2018-05-27T18:50:01.194Z,103273.39
2018-05-27T18:52:27.488Z,103270.31
2018-05-27T18:54:53.811Z,103267.84
2018-05-27T18:57:19.795Z,103267.91
2018-05-27T18:59:46.187Z,103268.91
2018-05-27T19:02:12.229Z,103273.05
2018-05-27T19:04:38.247Z,103263.35
2018-05-27T19:07:04.562Z,103264.77
2018-05-27T19:09:30.750Z,103271.25
2018-05-27T19:11:56.807Z,103272.70
2018-05-27T19:14:23.006Z,103282.55
2018-05-27T19:16:49.679Z,103276.73
2018-05-27T19:19:15.704Z,103273.31
2018-05-27T19:21:41.912Z,103275.93
2018-05-27T19:26:41.079Z,103284.80
2018-05-27T19:29:07.412Z,103275.87
2018-05-27T19:31:33.571Z,103287.14
2018-05-27T19:33:59.616Z,103290.28
2018-05-27T19:36:25.748Z,103289.44
2018-05-27T19:38:52.260Z,103286.86
2018-05-27T19:41:18.288Z,103292.28
2018-05-27T19:43:44.453Z,103292.88
2018-05-27T19:46:10.986Z,103292.58
2018-05-27T19:48:37.031Z,103290.05
2018-05-27T19:51:03.538Z,103293.28
2018-05-27T19:53:29.872Z,103297.36
2018-05-27T19:55:56.086Z,103299.60
2018-05-27T19:58:22.330Z,103302.39
2018-05-27T20:00:48.923Z,103292.62
2018-05-27T20:03:15.174Z,103296.80
2018-05-27T20:05:41.543Z,103302.00
2018-05-27T20:08:07.725Z,103312.92
2018-05-27T20:10:33.865Z,103312.22
2018-05-27T20:13:00.139Z,103298.75
2018-05-27T20:15:26.389Z,103318.28
2018-05-27T20:17:52.737Z,103316.68
2018-05-27T20:20:19.247Z,103321.78
2018-05-27T20:22:45.408Z,103320.03
2018-05-27T20:25:11.404Z,103324.47
2018-05-27T20:27:37.697Z,103324.91
2018-05-27T20:30:03.844Z,103318.74
2018-05-27T20:32:30.019Z,103320.63
2018-05-27T20:34:56.290Z,103327.33
2018-05-27T20:37:22.528Z,103323.45
2018-05-27T20:39:48.653Z,103311.52
2018-05-27T20:42:15.139Z,103317.20
2018-05-27T20:44:41.284Z,103307.01
2018-05-27T20:47:07.303Z,103320.00
2018-05-27T20:49:33.781Z,103306.25
2018-05-27T20:51:59.998Z,103315.69
2018-05-27T20:54:26.203Z,103315.37
2018-05-27T20:56:52.661Z,103311.48
2018-05-27T20:59:19.137Z,103313.45
2018-05-27T21:01:45.289Z,103315.73
2018-05-27T21:04:11.616Z,103314.97
2018-05-27T21:06:38.035Z,103310.10
2018-05-27T21:09:04.223Z,103307.91
2018-05-27T21:11:30.376Z,103303.53
2018-05-27T21:13:56.709Z,103305.41
2018-05-27T21:16:22.852Z,103308.13
2018-05-27T21:18:49.115Z,103307.28
2018-05-27T21:21:15.285Z,103308.63
2018-05-27T21:23:41.435Z,103300.71
2018-05-27T21:26:07.781Z,103303.56
2018-05-27T21:28:34.180Z,103312.49
2018-05-27T21:31:00.365Z,103308.92
2018-05-27T21:33:26.682Z,103314.77
2018-05-27T21:35:52.888Z,103315.66
2018-05-27T21:38:19.074Z,103317.00
2018-05-27T21:40:45.327Z,103310.87
2018-05-27T21:43:11.816Z,103316.31
2018-05-27T21:45:37.949Z,103317.29
2018-05-27T21:48:04.538Z,103311.94
2018-05-27T21:50:31.029Z,103310.73
2018-05-27T21:52:57.214Z,103311.22
2018-05-27T21:55:23.717Z,103317.50
2018-05-27T21:57:49.992Z,103314.91
2018-05-27T22:00:16.176Z,103316.21
2018-05-27T22:02:42.579Z,103314.50
2018-05-27T22:05:09.171Z,103320.23
2018-05-27T22:07:35.336Z,103314.02
2018-05-27T22:10:01.602Z,103320.30
2018-05-27T22:12:28.030Z,103323.06
2018-05-27T22:14:54.247Z,103325.78
2018-05-27T22:17:20.630Z,103326.72
2018-05-27T22:19:47.586Z,103323.11
2018-05-27T22:22:13.796Z,103325.34
2018-05-27T22:24:40.127Z,103332.03
2018-05-27T22:27:06.657Z,103341.03
2018-05-27T22:29:32.831Z,103335.75
2018-05-27T22:31:59.379Z,103323.34
2018-05-27T22:34:25.551Z,103330.84
2018-05-27T22:36:51.746Z,103332.34
2018-05-27T22:39:18.230Z,103335.03
2018-05-27T22:41:44.438Z,103320.83
2018-05-27T22:44:10.590Z,103330.56
2018-05-27T22:46:37.304Z,103329.22
2018-05-27T22:49:03.491Z,103330.68
2018-05-27T22:51:29.627Z,103340.01
2018-05-27T22:53:56.119Z,103331.61
2018-05-27T22:56:22.344Z,103332.51
2018-05-27T22:58:48.505Z,103333.59
2018-05-27T23:01:15.184Z,103338.90
2018-05-27T23:03:41.379Z,103341.17
2018-05-27T23:06:07.554Z,103343.84
2018-05-27T23:08:34.239Z,103347.86
2018-05-27T23:11:00.460Z,103327.02
2018-05-27T23:13:26.697Z,103335.48
2018-05-27T23:15:53.465Z,103337.31
2018-05-27T23:18:19.704Z,103334.27
2018-05-27T23:20:46.113Z,103333.41
2018-05-27T23:23:12.732Z,103335.64
2018-05-27T23:25:38.924Z,103334.83
2018-05-27T23:28:05.183Z,103333.56
2018-05-27T23:30:31.801Z,103327.77
2018-05-27T23:32:57.992Z,103328.66
2018-05-27T23:35:24.203Z,103329.14
2018-05-27T23:37:50.894Z,103328.25
2018-05-27T23:40:17.104Z,103326.91
2018-05-27T23:42:43.308Z,103326.05
2018-05-27T23:45:10.124Z,103328.36
2018-05-27T23:47:36.353Z,103325.76
2018-05-27T23:50:02.564Z,103329.36
2018-05-27T23:52:29.237Z,103326.66
2018-05-27T23:54:55.493Z,103323.16
2018-05-27T23:57:21.699Z,103327.98
2018-05-27T23:59:48.577Z,103332.93
